AirNav   TITAN Aviation Fuels
 
 605 users online  

IN03 Alford Airpark
Petersburg, Indiana, USA

GOING TO PETERSBURG?


FAA INFORMATION EFFECTIVE 26 JANUARY 2023

Location

FAA Identifier: IN03
Lat/Long: 38-27-50.0000N 087-15-00.0000W
38-27.833333N 087-15.000000W
38.4638889,-87.2500000
(estimated)
Elevation: 500 ft. / 152 m (estimated)
Variation: 02W (2000)
From city: 2 miles S of PETERSBURG, IN
Time zone: UTC -5 (UTC -4 during Daylight Saving Time)
Zip code: 47567

Airport Operations

Airport use: Private use. Permission required prior to landing
Activation date: 09/2002
Control tower: no
ARTCC: INDIANAPOLIS CENTER
FSS: TERRE HAUTE FLIGHT SERVICE STATION
Attendance: UNATNDD
Wind indicator: yes
Segmented circle: no

Airport Communications

WX AWOS-3PT at DCY (15 nm N): 124.1 (812-257-8889)
WX AWOS-3PT at HNB (19 nm SE): 118.250 (812-683-4003)

Nearby radio navigation aids

NDB name  Hdg/Dist  Freq  Var  ID
PALESTINE154/37.839103WPLX .--. .-.. -..-

Airport Services

Runway Information

Runway 9/27

Dimensions: 2400 x 60 ft. / 732 x 18 m
Surface: turf
RUNWAY 9  RUNWAY 27
Traffic pattern: leftleft
Obstructions: trees, 800 ft. from runwaynone

Airport Ownership and Management from official FAA records

Ownership: Privately-owned
Owner: DENNIS D. EVERSOLL
1510E CO RD 300 N
PETERSBURG, IN 47567
Phone 812-582-1407
Manager: DENNIS D. EVERSOLL
1510E CO RD 300 N
PETERSBURG, IN 47567
Phone 812-582-1407

Airport Operational Statistics

Aircraft based on the field: 2
Single engine airplanes: 2
    

Additional Remarks

DRAINAGE DITCH SOUTH SIDE OF RUNWAY.
FOR CD CTC EVANSVILLE APCH AT 812-436-4690, WHEN APCH CLSD CTC INDIANAPOLIS ARTCC AT 317-247-2411.

Instrument Procedures

There are no published instrument procedures at IN03.

Some nearby airports with instrument procedures:

KDCY - Daviess County Airport (15 nm N)
KHNB - Huntingburg Airport (19 nm SE)
KAJG - Mount Carmel Municipal Airport (24 nm W)
KLWV - Lawrenceville-Vincennes International Airport (25 nm NW)
KEVV - Evansville Regional Airport (29 nm SW)
 
Loc | Ops | Rwys | IFR | FBO | Links
Com | Nav | Svcs | Stats | Notes
Area around IN03 (Alford Airpark)
 
Road maps at: MapQuest Bing Google
 
Aerial photo
No photo
 
Sectional chart

 
Airport distance calculator
Flying to Alford Airpark? Find the distance to fly.

From to IN03

Sunrise and sunset
Times for 29-Jan-2023
 Local
(UTC-5)
 Zulu
(UTC)
Morning civil twilight07:3012:30
Sunrise07:5812:58
Sunset18:0623:06
Evening civil twilight18:3523:35

Current date and time
Zulu (UTC)  29-Jan-2023 06:46:34
Local (UTC-5)  29-Jan-2023 01:46:34
 
METAR
KDCY 
15nm N 
290635Z AUTO 18010KT 10SM DZ OVC042 07/05 A3005 RMK AO2 T00650053
KHNB 
19nm SE 
290556Z AUTO 17009KT 10SM -RA BKN039 OVC046 07/06 A3008 RMK AO2 RAE33B56 SLP187 P0001 60003 T00720056 10106 20067 58011
KAJG 
24nm W 
290635Z AUTO 20009KT 10SM RA OVC039 08/06 A3003 RMK AO2 T00750060
KLWV 
24nm NW 
290553Z AUTO 19013KT 10SM SCT015 OVC034 07/06 A3005 RMK AO2 SLP177 60004 T00720056 10100 20067 401331006 58008
KI19 
25nm S 
290635Z AUTO 21011KT 10SM -RA FEW032 BKN048 OVC060 07/02 A3007 RMK AO2
KEVV 
28nm SW 
290554Z 17007KT 9SM -RA OVC044 08/05 A3006 RMK AO2 SLP180 P0001 60005 T00780050 10111 20072 401280028 58015
KFRH 
29nm E 
290635Z AUTO 19005KT 10SM BKN034 OVC041 06/03 A3006 RMK AO1
TAF
KHNB 
19nm SE 
290537Z 2906/3006 20016G23KT P6SM VCSH OVC035 FM290900 19013G20KT P6SM VCSH OVC028 FM291000 19012G19KT P6SM VCSH OVC018 FM291100 19012G18KT P6SM VCSH OVC010 FM291200 19011G18KT P6SM OVC007 FM291400 24009KT 5SM BR OVC005
NOTAMs
Click for the latest NOTAMs
NOTAMs are issued by the DoD/FAA and will open in a separate window not controlled by AirNav.

 

 
 

Would you like to see your business listed on this page?

 If your business provides an interesting product or service to pilots, flight crews, aircraft, or users of the Alford Airpark, you should consider listing it here.  To start the listing process, click on the button below
 
Add a business
 

Other Pages about Alford Airpark

Update a link
 
Copyright © AirNav, LLC. All rights reserved. Privacy Policy  Contact